Costa Fascinosa — ICPO — position and weather

sailwx.info

Track history (hours):
 
Tides and Currents Weather Stations Pressure Air Temp Water Temp Dewpoint Dewpoint Depression Visibility Wind Speed Wind Dir Waves Ship Positions

Costa Fascinosa

Last reported at 2018-Jul-22 02:52 UTC. Time now 2018-Jul-22 03:20 UTC.
Position N 43°36' E 007°50'.

Length 291 m; draft 8.3 m.

Type: Passenger vessel. MMSI: 247313500.

Date/timePositionNaut miles runAvg speedWind from/ knotsBaromVisibWave heightAir tempDewpointWater temp
2018-Jul-22 02:52N 43°36' E 007°50'1120.3
2018-Jul-22 02:19N 43°30' E 007°37'620.6
2018-Jul-22 02:00N 43°26' E 007°30'1020.6
2018-Jul-22 01:30N 43°20' E 007°18'1020.4
2018-Jul-22 01:00N 43°14' E 007°07'1719.9
2018-Jul-22 00:10N 43°04' E 006°49'20820.4
2018-Jul-21 13:58N 41°25' E 002°42'1020.7
2018-Jul-21 13:30N 41°20' E 002°30'1020.5
2018-Jul-21 13:00N 41°14' E 002°19'713.9
2018-Jul-21 12:30N 41°17' E 002°11'4 8.9
2018-Jul-21 12:00N 41°21' E 002°10'0 0.1
2018-Jul-21 11:30N 41°21' E 002°10'0 0.0
2018-Jul-21 11:00N 41°21' E 002°10'0 0.0
2018-Jul-21 10:30N 41°21' E 002°11'0 0.0
2018-Jul-21 10:00N 41°21' E 002°10'0 0.0
2018-Jul-21 09:30N 41°21' E 002°10'0 0.0
2018-Jul-21 09:00N 41°21' E 002°10'0 0.0
2018-Jul-21 08:30N 41°21' E 002°10'0 0.0
2018-Jul-21 08:00N 41°21' E 002°10'0 0.0
2018-Jul-21 07:30N 41°21' E 002°10'0 0.0
2018-Jul-21 07:00N 41°21' E 002°10'0 0.0
2018-Jul-21 06:30N 41°21' E 002°10'0 0.0
2018-Jul-21 05:59N 41°21' E 002°11'0 0.0
2018-Jul-21 05:30N 41°21' E 002°10'1 3.0
2018-Jul-21 05:00N 41°20' E 002°10'510.0
2018-Jul-21 04:30N 41°15' E 002°11'611.4
2018-Jul-21 04:00N 41°09' E 002°11'611.3
2018-Jul-21 03:30N 41°03' E 002°12'9311.1
2018-Jul-20 19:05N 39°30' E 002°17'111.5
2018-Jul-20 19:00N 39°29' E 002°18'611.7
2018-Jul-20 18:29N 39°26' E 002°25'611.9
2018-Jul-20 18:00N 39°25' E 002°32'611.8
2018-Jul-20 17:30N 39°29' E 002°38'4 8.1
2018-Jul-20 17:00N 39°33' E 002°38'0 0.1
2018-Jul-20 16:29N 39°33' E 002°38'0 0.0
2018-Jul-20 15:58N 39°33' E 002°38'0 0.0
2018-Jul-20 15:28N 39°33' E 002°38'0 0.0
2018-Jul-20 14:58N 39°33' E 002°38'0 0.0
2018-Jul-20 14:28N 39°33' E 002°38'0 0.0
2018-Jul-20 14:00N 39°33' E 002°38'0 0.0
2018-Jul-20 13:30N 39°33' E 002°38'0 0.0
2018-Jul-20 13:00N 39°33' E 002°38'0 0.0
2018-Jul-20 12:30N 39°33' E 002°38'0 0.0
2018-Jul-20 12:00N 39°33' E 002°38'0 0.0
2018-Jul-20 11:27N 39°33' E 002°38'0 0.0
2018-Jul-20 11:00N 39°33' E 002°38'0 0.0
2018-Jul-20 10:30N 39°33' E 002°38'0 0.0
2018-Jul-20 09:59N 39°33' E 002°38'0 0.0
2018-Jul-20 09:29N 39°33' E 002°38'0 0.0
2018-Jul-20 08:55N 39°33' E 002°38'0 0.0
2018-Jul-20 08:28N 39°33' E 002°38'0 0.0
2018-Jul-20 07:58N 39°33' E 002°38'0 0.0
2018-Jul-20 07:28N 39°33' E 002°38'0 0.0
2018-Jul-20 07:00N 39°33' E 002°38'0 1.0
2018-Jul-20 06:31N 39°33' E 002°39'5 9.9
2018-Jul-20 06:00N 39°29' E 002°37'816.5
2018-Jul-20 05:30N 39°21' E 002°31'1017.5
2018-Jul-20 04:56N 39°13' E 002°24'1417.0
2018-Jul-20 04:08N 39°05' E 002°10'1917.9
2018-Jul-20 03:05N 38°57' E 001°48'318.0
2018-Jul-20 02:55N 38°57' E 001°44'717.9
2018-Jul-20 02:30N 38°55' E 001°35'6 5.3
2018-Jul-20 01:23N 38°54' E 001°27'0 0.0
2018-Jul-19 19:53N 38°54' E 001°27'0 0.0
2018-Jul-19 19:23N 38°54' E 001°27'0 0.0
2018-Jul-19 18:59N 38°54' E 001°27'0 0.0
2018-Jul-19 18:23N 38°54' E 001°27'0 0.0
2018-Jul-19 16:41N 38°54' E 001°27'0 0.0
2018-Jul-19 16:14N 38°54' E 001°27'0 0.0
2018-Jul-19 15:05N 38°54' E 001°27'0 0.0
2018-Jul-19 14:59N 38°54' E 001°27'0 0.0
2018-Jul-19 14:11N 38°54' E 001°27'0 0.0
2018-Jul-19 12:53N 38°54' E 001°27'0 0.0
2018-Jul-19 10:11N 38°54' E 001°27'0 0.0
2018-Jul-19 09:56N 38°54' E 001°27'0 0.0
2018-Jul-19 09:29N 38°54' E 001°27'0 0.0
2018-Jul-19 08:59N 38°54' E 001°27'0 0.0
2018-Jul-19 07:49N 38°54' E 001°27'0 0.0
2018-Jul-19 07:25N 38°54' E 001°27'0 0.0
2018-Jul-19 06:54N 38°54' E 001°27'0 0.2
2018-Jul-19 06:30N 38°54' E 001°27'4 8.1
2018-Jul-19 06:01N 38°51' E 001°29'1016.5
2018-Jul-19 05:26N 38°50' E 001°42'717.6
2018-Jul-19 05:01N 38°50' E 001°51'2415.6
2018-Jul-19 03:27N 38°48' E 002°22'612.8
2018-Jul-19 03:00N 38°50' E 002°29'713.1
2018-Jul-19 02:29N 38°55' E 002°35'613.2
2018-Jul-19 02:00N 38°58' E 002°43'713.4
2018-Jul-19 01:30N 38°59' E 002°51'3 5.4
2018-Jul-19 01:00N 39°00' E 002°54'3 6.6
2018-Jul-19 00:31N 38°57' E 002°54'1020.6
2018-Jul-19 00:00N 38°50' E 003°04'918.1
2018-Jul-18 23:30N 38°46' E 003°14'612.7
2018-Jul-18 23:00N 38°45' E 003°22'612.7
2018-Jul-18 22:30N 38°45' E 003°30'612.7
2018-Jul-18 22:00N 38°44' E 003°38'712.6
2018-Jul-18 21:29N 38°44' E 003°47'912.2
2018-Jul-18 20:46N 38°44' E 003°58'312.1
2018-Jul-18 20:30N 38°43' E 004°02'612.2
2018-Jul-18 19:59N 38°43' E 004°10'612.2
2018-Jul-18 19:29N 38°43' E 004°18'4213.1
2018-Jul-18 16:19N 38°40' E 005°11'617.8
2018-Jul-18 15:59N 38°40' E 005°19'33416.8
2018-Jul-17 20:10N 38°20' E 012°24'716.3
2018-Jul-17 19:46N 38°19' E 012°33'1616.4
2018-Jul-17 18:48N 38°18' E 012°53'516.3
2018-Jul-17 18:30N 38°18' E 012°59'816.2
2018-Jul-17 18:01N 38°18' E 013°09'816.2
2018-Jul-17 17:30N 38°17' E 013°19'815.2
2018-Jul-17 17:00N 38°11' E 013°25'4 8.7
2018-Jul-17 16:30N 38°07' E 013°23'1 1.0
2018-Jul-17 15:59N 38°08' E 013°22'0 0.0
2018-Jul-17 15:29N 38°08' E 013°22'0 0.0
2018-Jul-17 14:59N 38°08' E 013°22'0 0.0
2018-Jul-17 14:29N 38°08' E 013°22'0 0.0
2018-Jul-17 13:59N 38°08' E 013°22'0 0.0
2018-Jul-17 13:29N 38°08' E 013°22'0 0.0
2018-Jul-17 12:59N 38°08' E 013°22'0 0.0
2018-Jul-17 12:29N 38°08' E 013°22'0 0.0
2018-Jul-17 11:59N 38°08' E 013°22'0 0.0
2018-Jul-17 11:29N 38°08' E 013°22'0 0.0
2018-Jul-17 10:59N 38°08' E 013°22'0 0.0
2018-Jul-17 10:29N 38°08' E 013°22'0 0.0
2018-Jul-17 09:59N 38°08' E 013°22'0 0.0
2018-Jul-17 09:29N 38°08' E 013°22'0 0.0
2018-Jul-17 08:59N 38°08' E 013°22'0 0.0
2018-Jul-17 08:28N 38°08' E 013°22'0 0.0
2018-Jul-17 07:58N 38°08' E 013°22'0 0.0
2018-Jul-17 07:28N 38°08' E 013°22'0 0.0
2018-Jul-17 06:58N 38°08' E 013°22'0 0.2
2018-Jul-17 06:30N 38°08' E 013°22'3 5.8
2018-Jul-17 06:00N 38°09' E 013°25'714.2
2018-Jul-17 05:30N 38°16' E 013°27'713.8
2018-Jul-17 05:00N 38°23' E 013°29'714.0
2018-Jul-17 04:30N 38°30' E 013°31'714.2
2018-Jul-17 04:00N 38°37' E 013°33'714.5
2018-Jul-17 03:30N 38°44' E 013°35'714.8
2018-Jul-17 03:00N 38°51' E 013°37'2114.7
2018-Jul-17 01:35N 39°11' E 013°44'314.8
2018-Jul-17 01:22N 39°15' E 013°45'514.8
2018-Jul-17 01:00N 39°20' E 013°46'714.6
2018-Jul-17 00:30N 39°27' E 013°48'1414.2
2018-Jul-16 23:31N 39°41' E 013°52'714.1
2018-Jul-16 23:00N 39°48' E 013°54'814.0
2018-Jul-16 22:27N 39°55' E 013°56'614.0
2018-Jul-16 22:00N 40°01' E 013°59'714.3
2018-Jul-16 21:30N 40°08' E 014°01'714.2
2018-Jul-16 21:01N 40°15' E 014°03'714.2
2018-Jul-16 20:30N 40°22' E 014°05'714.1
2018-Jul-16 20:00N 40°29' E 014°07'714.2
2018-Jul-16 19:30N 40°36' E 014°09'714.2
2018-Jul-16 19:00N 40°42' E 014°13'714.4
2018-Jul-16 18:30N 40°49' E 014°17'2 3.1
2018-Jul-16 18:00N 40°50' E 014°16'0 0.0
2018-Jul-16 17:30N 40°50' E 014°16'0 0.0
2018-Jul-16 17:00N 40°50' E 014°16'0 0.0
2018-Jul-16 16:28N 40°50' E 014°16'0 0.0
2018-Jul-16 15:58N 40°50' E 014°16'0 0.0
2018-Jul-16 15:29N 40°50' E 014°16'0 0.0
2018-Jul-16 15:00N 40°50' E 014°16'0 0.0
2018-Jul-16 14:30N 40°50' E 014°16'0 0.0
2018-Jul-16 14:00N 40°50' E 014°16'0 0.0
2018-Jul-16 13:30N 40°50' E 014°16'0 0.0
2018-Jul-16 13:00N 40°50' E 014°16'0 0.0
2018-Jul-16 12:30N 40°50' E 014°16'0 0.0
2018-Jul-16 12:00N 40°50' E 014°16'0 0.0
2018-Jul-16 11:30N 40°50' E 014°16'0 0.0
2018-Jul-16 11:00N 40°50' E 014°16'1 1.0
2018-Jul-16 10:31N 40°50' E 014°16'611.2
2018-Jul-16 10:01N 40°44' E 014°17'917.3
2018-Jul-16 09:30N 40°40' E 014°07'917.8
2018-Jul-16 09:00N 40°38' E 013°56'1020.6
2018-Jul-16 08:30N 40°39' E 013°43'1020.9
2018-Jul-16 08:00N 40°42' E 013°29'1120.9
2018-Jul-16 07:29N 40°45' E 013°15'1121.0
2018-Jul-16 06:59N 40°47' E 013°02'1020.5
2018-Jul-16 06:31N 40°51' E 012°50'1021.0
2018-Jul-16 06:01N 40°57' E 012°38'1120.9
2018-Jul-16 05:30N 41°03' E 012°26'1021.0
2018-Jul-16 05:00N 41°08' E 012°15'1020.9
2018-Jul-16 04:30N 41°14' E 012°03'1520.9
2018-Jul-16 03:46N 41°22' E 011°46'620.7
2018-Jul-16 03:30N 41°25' E 011°40'1320.2
2018-Jul-16 02:50N 41°34' E 011°26'720.7
2018-Jul-16 02:29N 41°37' E 011°17'1021.0
2018-Jul-16 02:00N 41°43' E 011°06'3919.3
2018-Jul-15 23:58N 42°03' E 010°22'920.1
2018-Jul-15 23:30N 42°09' E 010°12'1020.0
2018-Jul-15 23:00N 42°15' E 010°00'1019.8
2018-Jul-15 22:30N 42°21' E 009°51'1020.6
2018-Jul-15 22:00N 42°31' E 009°47'1020.7
2018-Jul-15 21:30N 42°41' E 009°43'1020.5
2018-Jul-15 21:00N 42°51' E 009°38'1020.4
2018-Jul-15 20:30N 43°01' E 009°35'1020.0
2018-Jul-15 20:00N 43°10' E 009°29'1020.3
2018-Jul-15 19:30N 43°19' E 009°22'1020.0
2018-Jul-15 19:00N 43°27' E 009°15'1020.1
2018-Jul-15 18:30N 43°36' E 009°07'1020.4
2018-Jul-15 18:00N 43°44' E 009°00'1020.1
2018-Jul-15 17:30N 43°53' E 008°53'1019.1
2018-Jul-15 17:00N 44°01' E 008°46'1019.7
2018-Jul-15 16:30N 44°10' E 008°40'1019.3
2018-Jul-15 16:00N 44°18' E 008°33'2 5.0
2018-Jul-15 15:30N 44°19' E 008°29'0 0.0
2018-Jul-15 15:00N 44°19' E 008°29'0 0.0
2018-Jul-15 14:28N 44°19' E 008°29'0 0.0
2018-Jul-15 13:58N 44°19' E 008°29'0 0.0
2018-Jul-15 13:30N 44°19' E 008°29'0 0.0
2018-Jul-15 13:00N 44°19' E 008°29'0 0.0
2018-Jul-15 12:30N 44°19' E 008°29'0 0.0
2018-Jul-15 12:00N 44°19' E 008°29'0 0.0
2018-Jul-15 11:30N 44°19' E 008°29'0 0.0
2018-Jul-15 11:00N 44°19' E 008°29'0 0.0
2018-Jul-15 10:29N 44°19' E 008°29'0 0.0
2018-Jul-15 09:59N 44°19' E 008°29'0 0.0
2018-Jul-15 09:29N 44°19' E 008°29'0 0.0
2018-Jul-15 08:59N 44°19' E 008°29'0 0.0
2018-Jul-15 08:28N 44°19' E 008°29'0 0.0
2018-Jul-15 07:58N 44°19' E 008°29'0 0.0
2018-Jul-15 07:28N 44°19' E 008°29'0 0.0
2018-Jul-15 06:58N 44°19' E 008°29'0 0.0
2018-Jul-15 06:30N 44°19' E 008°29'0 0.3
2018-Jul-15 06:00N 44°19' E 008°29'4 7.4
2018-Jul-15 05:31N 44°15' E 008°32'917.5
2018-Jul-15 05:00N 44°07' E 008°27'1019.1
2018-Jul-15 04:30N 43°59' E 008°20'1019.8
2018-Jul-15 04:01N 43°51' E 008°12'1019.7
2018-Jul-15 03:31N 43°44' E 008°03'1019.9
2018-Jul-15 03:00N 43°38' E 007°52'1019.8
2018-Jul-15 02:30N 43°32' E 007°41'1019.9
2018-Jul-15 02:00N 43°26' E 007°30'1020.1
2018-Jul-15 01:30N 43°20' E 007°19'1020.1
2018-Jul-15 01:01N 43°13' E 007°09'1020.4
2018-Jul-15 00:30N 43°07' E 006°58'1020.5
2018-Jul-15 00:01N 43°02' E 006°46'1020.1
2018-Jul-14 23:30N 42°56' E 006°35'1619.7
2018-Jul-14 22:42N 42°49' E 006°15'419.9
2018-Jul-14 22:30N 42°47' E 006°10'1020.0
2018-Jul-14 22:01N 42°42' E 005°58'1020.4
2018-Jul-14 21:31N 42°38' E 005°46'1120.6
2018-Jul-14 21:00N 42°33' E 005°33'1020.5
2018-Jul-14 20:30N 42°28' E 005°22'1020.6
2018-Jul-14 20:00N 42°23' E 005°09'1020.8
2018-Jul-14 19:30N 42°18' E 004°57'1020.3
2018-Jul-14 19:00N 42°14' E 004°44'1020.3
2018-Jul-14 18:30N 42°09' E 004°33'1020.6
2018-Jul-14 18:00N 42°04' E 004°20'1020.6
2018-Jul-14 17:30N 41°59' E 004°08'1020.4
2018-Jul-14 17:01N 41°54' E 003°56'1320.5
2018-Jul-14 16:23N 41°48' E 003°41'820.4
2018-Jul-14 15:59N 41°44' E 003°31'1020.1
2018-Jul-14 15:30N 41°40' E 003°20'1020.3
2018-Jul-14 15:01N 41°35' E 003°08'1020.2
2018-Jul-14 14:31N 41°31' E 002°56'2120.5
2018-Jul-14 13:30N 41°22' E 002°31'1121.1
2018-Jul-14 13:00N 41°16' E 002°19'714.0
2018-Jul-14 12:30N 41°18' E 002°10'3 6.1
2018-Jul-14 12:00N 41°21' E 002°11'0 0.0
2018-Jul-14 11:30N 41°21' E 002°11'0 0.0
2018-Jul-14 11:00N 41°21' E 002°11'0 0.0
2018-Jul-14 10:30N 41°21' E 002°11'0 0.0
2018-Jul-14 10:00N 41°21' E 002°11'0 0.0
2018-Jul-14 09:30N 41°21' E 002°11'0 0.0
2018-Jul-14 09:00N 41°21' E 002°11'0 0.0
2018-Jul-14 08:30N 41°21' E 002°11'0 0.0
2018-Jul-14 08:00N 41°21' E 002°11'0 0.0
2018-Jul-14 07:30N 41°21' E 002°11'0 0.0
2018-Jul-14 07:00N 41°21' E 002°11'0 0.0
2018-Jul-14 06:30N 41°21' E 002°11'0 0.0
2018-Jul-14 06:00N 41°21' E 002°11'0 0.0
2018-Jul-14 05:30N 41°21' E 002°10'1 2.6
2018-Jul-14 05:00N 41°20' E 002°10'5 9.7
2018-Jul-14 04:30N 41°15' E 002°11'510.5
2018-Jul-14 04:00N 41°10' E 002°11'611.3
2018-Jul-14 03:30N 41°04' E 002°12'611.0
2018-Jul-14 03:00N 40°59' E 002°12'611.2
2018-Jul-14 02:27N 40°53' E 002°12'511.3
2018-Jul-14 02:00N 40°48' E 002°12'611.4
2018-Jul-14 01:30N 40°42' E 002°12'611.3
2018-Jul-14 01:00N 40°36' E 002°13'611.4
2018-Jul-14 00:30N 40°31' E 002°15'510.9
2018-Jul-14 00:00N 40°25' E 002°14'611.2
2018-Jul-13 23:30N 40°20' E 002°13'1011.7
2018-Jul-13 22:38N 40°10' E 002°14'211.8
2018-Jul-13 22:30N 40°08' E 002°14'2311.6
2018-Jul-13 20:30N 39°45' E 002°14'611.6
2018-Jul-13 20:00N 39°39' E 002°14'611.6
2018-Jul-13 19:30N 39°33' E 002°15'611.4
2018-Jul-13 19:00N 39°29' E 002°20'611.5
2018-Jul-13 18:26N 39°26' E 002°27'511.4
2018-Jul-13 18:00N 39°26' E 002°33'612.2
2018-Jul-13 17:30N 39°30' E 002°38'3 5.4
2018-Jul-13 17:00N 39°33' E 002°38'0 0.0
2018-Jul-13 16:30N 39°33' E 002°38'0 0.0
2018-Jul-13 16:00N 39°33' E 002°38'0 0.0
2018-Jul-13 15:30N 39°33' E 002°38'0 0.0
2018-Jul-13 14:59N 39°33' E 002°38'0 0.0
2018-Jul-13 13:59N 39°33' E 002°38'0 0.0
2018-Jul-13 13:26N 39°33' E 002°38'0 0.0
2018-Jul-13 12:59N 39°33' E 002°38'0 0.0
2018-Jul-13 12:29N 39°33' E 002°38'0 0.0
2018-Jul-13 11:59N 39°33' E 002°38'0 0.0
2018-Jul-13 11:29N 39°33' E 002°38'0 0.0
2018-Jul-13 10:53N 39°33' E 002°38'0 0.0
2018-Jul-13 10:29N 39°33' E 002°38'0 0.0
2018-Jul-13 09:59N 39°33' E 002°38'0 0.0
2018-Jul-13 09:29N 39°33' E 002°38'0 0.0
2018-Jul-13 08:59N 39°33' E 002°38'0 0.0
2018-Jul-13 08:29N 39°33' E 002°38'0 0.0
2018-Jul-13 07:59N 39°33' E 002°38'0 0.0
2018-Jul-13 07:30N 39°33' E 002°38'0 0.0
2018-Jul-13 07:00N 39°33' E 002°38'0 0.3
2018-Jul-13 06:30N 39°33' E 002°38'5 9.9
2018-Jul-13 05:59N 39°28' E 002°36'817.6
2018-Jul-13 05:30N 39°21' E 002°31'917.7
2018-Jul-13 05:00N 39°14' E 002°24'917.5
2018-Jul-13 04:30N 39°08' E 002°16'816.7
2018-Jul-13 04:00N 39°04' E 002°06'917.5
2018-Jul-13 03:29N 38°59' E 001°56'817.5
2018-Jul-13 03:00N 38°57' E 001°46'917.4
2018-Jul-13 02:30N 38°55' E 001°35'713.1
2018-Jul-13 02:01N 38°54' E 001°27'0 0.2
2018-Jul-13 00:09N 38°54' E 001°27'0 0.0
2018-Jul-13 00:00N 38°54' E 001°27'0 0.0
2018-Jul-12 20:39N 38°54' E 001°27'0 0.0
2018-Jul-12 20:30N 38°54' E 001°27'0 0.0
2018-Jul-12 19:58N 38°54' E 001°27'0 0.0
2018-Jul-12 17:43N 38°54' E 001°27'0 0.0
2018-Jul-12 17:27N 38°54' E 001°27'0 0.0
2018-Jul-12 16:54N 38°54' E 001°27'0 0.0
2018-Jul-12 16:30N 38°54' E 001°27'0 0.0
2018-Jul-12 15:54N 38°54' E 001°27'0 0.0
2018-Jul-12 15:21N 38°54' E 001°27'0 0.0
2018-Jul-12 14:15N 38°54' E 001°27'0 0.0
2018-Jul-12 13:51N 38°54' E 001°27'0 0.0
2018-Jul-12 13:15N 38°54' E 001°27'0 0.0
2018-Jul-12 12:57N 38°54' E 001°27'0 0.0
2018-Jul-12 12:15N 38°54' E 001°27'0 0.0
2018-Jul-12 11:27N 38°54' E 001°27'0 0.0
2018-Jul-12 10:51N 38°54' E 001°27'0 0.0
2018-Jul-12 10:27N 38°54' E 001°27'0 0.0
2018-Jul-12 09:51N 38°54' E 001°27'0 0.0
2018-Jul-12 09:30N 38°54' E 001°27'0 0.0
2018-Jul-12 08:57N 38°54' E 001°27'0 0.0
2018-Jul-12 08:15N 38°54' E 001°27'0 0.0
2018-Jul-12 08:00N 38°54' E 001°27'0 0.0
2018-Jul-12 07:30N 38°54' E 001°27'0 0.0
2018-Jul-12 06:51N 38°54' E 001°27'0 0.5
2018-Jul-12 06:28N 38°54' E 001°27'4 9.0
2018-Jul-12 05:59N 38°51' E 001°30'816.4
2018-Jul-12 05:30N 38°50' E 001°40'917.0
2018-Jul-12 05:00N 38°49' E 001°51'816.8
2018-Jul-12 04:30N 38°49' E 002°01'611.9
2018-Jul-12 04:00N 38°49' E 002°09'612.1
2018-Jul-12 03:30N 38°48' E 002°17'612.1
2018-Jul-12 02:59N 38°48' E 002°25'  
Track history (hours):
 
Tides and Currents Weather Stations Pressure Air Temp Water Temp Dewpoint Dewpoint Depression Visibility Wind Speed Wind Dir Waves Ship Positions

Costa Fascinosa

Last reported at 2018-Jul-22 02:52 UTC. Time now 2018-Jul-22 03:20 UTC.
Position N 43°36' E 007°50'.

Length 291 m; draft 8.3 m.

Type: Passenger vessel. MMSI: 247313500.

Date/timePositionNaut miles runAvg speedWind from/ knotsBaromVisibWave heightAir tempDewpointWater temp
2018-Jul-22 02:52N 43°36' E 007°50'1120.3
2018-Jul-22 02:19N 43°30' E 007°37'620.6
2018-Jul-22 02:00N 43°26' E 007°30'1020.6
2018-Jul-22 01:30N 43°20' E 007°18'1020.4
2018-Jul-22 01:00N 43°14' E 007°07'1719.9
2018-Jul-22 00:10N 43°04' E 006°49'20820.4
2018-Jul-21 13:58N 41°25' E 002°42'1020.7
2018-Jul-21 13:30N 41°20' E 002°30'1020.5
2018-Jul-21 13:00N 41°14' E 002°19'713.9
2018-Jul-21 12:30N 41°17' E 002°11'4 8.9
2018-Jul-21 12:00N 41°21' E 002°10'0 0.1
2018-Jul-21 11:30N 41°21' E 002°10'0 0.0
2018-Jul-21 11:00N 41°21' E 002°10'0 0.0
2018-Jul-21 10:30N 41°21' E 002°11'0 0.0
2018-Jul-21 10:00N 41°21' E 002°10'0 0.0
2018-Jul-21 09:30N 41°21' E 002°10'0 0.0
2018-Jul-21 09:00N 41°21' E 002°10'0 0.0
2018-Jul-21 08:30N 41°21' E 002°10'0 0.0
2018-Jul-21 08:00N 41°21' E 002°10'0 0.0
2018-Jul-21 07:30N 41°21' E 002°10'0 0.0
2018-Jul-21 07:00N 41°21' E 002°10'0 0.0
2018-Jul-21 06:30N 41°21' E 002°10'0 0.0
2018-Jul-21 05:59N 41°21' E 002°11'0 0.0
2018-Jul-21 05:30N 41°21' E 002°10'1 3.0
2018-Jul-21 05:00N 41°20' E 002°10'510.0
2018-Jul-21 04:30N 41°15' E 002°11'611.4
2018-Jul-21 04:00N 41°09' E 002°11'611.3
2018-Jul-21 03:30N 41°03' E 002°12'9311.1
2018-Jul-20 19:05N 39°30' E 002°17'111.5
2018-Jul-20 19:00N 39°29' E 002°18'611.7
2018-Jul-20 18:29N 39°26' E 002°25'611.9
2018-Jul-20 18:00N 39°25' E 002°32'611.8
2018-Jul-20 17:30N 39°29' E 002°38'4 8.1
2018-Jul-20 17:00N 39°33' E 002°38'0 0.1
2018-Jul-20 16:29N 39°33' E 002°38'0 0.0
2018-Jul-20 15:58N 39°33' E 002°38'0 0.0
2018-Jul-20 15:28N 39°33' E 002°38'0 0.0
2018-Jul-20 14:58N 39°33' E 002°38'0 0.0
2018-Jul-20 14:28N 39°33' E 002°38'0 0.0
2018-Jul-20 14:00N 39°33' E 002°38'0 0.0
2018-Jul-20 13:30N 39°33' E 002°38'0 0.0
2018-Jul-20 13:00N 39°33' E 002°38'0 0.0
2018-Jul-20 12:30N 39°33' E 002°38'0 0.0
2018-Jul-20 12:00N 39°33' E 002°38'0 0.0
2018-Jul-20 11:27N 39°33' E 002°38'0 0.0
2018-Jul-20 11:00N 39°33' E 002°38'0 0.0
2018-Jul-20 10:30N 39°33' E 002°38'0 0.0
2018-Jul-20 09:59N 39°33' E 002°38'0 0.0
2018-Jul-20 09:29N 39°33' E 002°38'0 0.0
2018-Jul-20 08:55N 39°33' E 002°38'0 0.0
2018-Jul-20 08:28N 39°33' E 002°38'0 0.0
2018-Jul-20 07:58N 39°33' E 002°38'0 0.0
2018-Jul-20 07:28N 39°33' E 002°38'0 0.0
2018-Jul-20 07:00N 39°33' E 002°38'0 1.0
2018-Jul-20 06:31N 39°33' E 002°39'5 9.9
2018-Jul-20 06:00N 39°29' E 002°37'816.5
2018-Jul-20 05:30N 39°21' E 002°31'1017.5
2018-Jul-20 04:56N 39°13' E 002°24'1417.0
2018-Jul-20 04:08N 39°05' E 002°10'1917.9
2018-Jul-20 03:05N 38°57' E 001°48'318.0
2018-Jul-20 02:55N 38°57' E 001°44'717.9
2018-Jul-20 02:30N 38°55' E 001°35'6 5.3
2018-Jul-20 01:23N 38°54' E 001°27'0 0.0
2018-Jul-19 19:53N 38°54' E 001°27'0 0.0
2018-Jul-19 19:23N 38°54' E 001°27'0 0.0
2018-Jul-19 18:59N 38°54' E 001°27'0 0.0
2018-Jul-19 18:23N 38°54' E 001°27'0 0.0
2018-Jul-19 16:41N 38°54' E 001°27'0 0.0
2018-Jul-19 16:14N 38°54' E 001°27'0 0.0
2018-Jul-19 15:05N 38°54' E 001°27'0 0.0
2018-Jul-19 14:59N 38°54' E 001°27'0 0.0
2018-Jul-19 14:11N 38°54' E 001°27'0 0.0
2018-Jul-19 12:53N 38°54' E 001°27'0 0.0
2018-Jul-19 10:11N 38°54' E 001°27'0 0.0
2018-Jul-19 09:56N 38°54' E 001°27'0 0.0
2018-Jul-19 09:29N 38°54' E 001°27'0 0.0
2018-Jul-19 08:59N 38°54' E 001°27'0 0.0
2018-Jul-19 07:49N 38°54' E 001°27'0 0.0
2018-Jul-19 07:25N 38°54' E 001°27'0 0.0
2018-Jul-19 06:54N 38°54' E 001°27'0 0.2
2018-Jul-19 06:30N 38°54' E 001°27'4 8.1
2018-Jul-19 06:01N 38°51' E 001°29'1016.5
2018-Jul-19 05:26N 38°50' E 001°42'717.6
2018-Jul-19 05:01N 38°50' E 001°51'2415.6
2018-Jul-19 03:27N 38°48' E 002°22'612.8
2018-Jul-19 03:00N 38°50' E 002°29'713.1
2018-Jul-19 02:29N 38°55' E 002°35'613.2
2018-Jul-19 02:00N 38°58' E 002°43'713.4
2018-Jul-19 01:30N 38°59' E 002°51'3 5.4
2018-Jul-19 01:00N 39°00' E 002°54'3 6.6
2018-Jul-19 00:31N 38°57' E 002°54'1020.6
2018-Jul-19 00:00N 38°50' E 003°04'918.1
2018-Jul-18 23:30N 38°46' E 003°14'612.7
2018-Jul-18 23:00N 38°45' E 003°22'612.7
2018-Jul-18 22:30N 38°45' E 003°30'612.7
2018-Jul-18 22:00N 38°44' E 003°38'712.6
2018-Jul-18 21:29N 38°44' E 003°47'912.2
2018-Jul-18 20:46N 38°44' E 003°58'312.1
2018-Jul-18 20:30N 38°43' E 004°02'612.2
2018-Jul-18 19:59N 38°43' E 004°10'612.2
2018-Jul-18 19:29N 38°43' E 004°18'4213.1
2018-Jul-18 16:19N 38°40' E 005°11'617.8
2018-Jul-18 15:59N 38°40' E 005°19'33416.8
2018-Jul-17 20:10N 38°20' E 012°24'716.3
2018-Jul-17 19:46N 38°19' E 012°33'1616.4
2018-Jul-17 18:48N 38°18' E 012°53'516.3
2018-Jul-17 18:30N 38°18' E 012°59'816.2
2018-Jul-17 18:01N 38°18' E 013°09'816.2
2018-Jul-17 17:30N 38°17' E 013°19'815.2
2018-Jul-17 17:00N 38°11' E 013°25'4 8.7
2018-Jul-17 16:30N 38°07' E 013°23'1 1.0
2018-Jul-17 15:59N 38°08' E 013°22'0 0.0
2018-Jul-17 15:29N 38°08' E 013°22'0 0.0
2018-Jul-17 14:59N 38°08' E 013°22'0 0.0
2018-Jul-17 14:29N 38°08' E 013°22'0 0.0
2018-Jul-17 13:59N 38°08' E 013°22'0 0.0
2018-Jul-17 13:29N 38°08' E 013°22'0 0.0
2018-Jul-17 12:59N 38°08' E 013°22'0 0.0
2018-Jul-17 12:29N 38°08' E 013°22'0 0.0
2018-Jul-17 11:59N 38°08' E 013°22'0 0.0
2018-Jul-17 11:29N 38°08' E 013°22'0 0.0
2018-Jul-17 10:59N 38°08' E 013°22'0 0.0
2018-Jul-17 10:29N 38°08' E 013°22'0 0.0
2018-Jul-17 09:59N 38°08' E 013°22'0 0.0
2018-Jul-17 09:29N 38°08' E 013°22'0 0.0
2018-Jul-17 08:59N 38°08' E 013°22'0 0.0
2018-Jul-17 08:28N 38°08' E 013°22'0 0.0
2018-Jul-17 07:58N 38°08' E 013°22'0 0.0
2018-Jul-17 07:28N 38°08' E 013°22'0 0.0
2018-Jul-17 06:58N 38°08' E 013°22'0 0.2
2018-Jul-17 06:30N 38°08' E 013°22'3 5.8
2018-Jul-17 06:00N 38°09' E 013°25'714.2
2018-Jul-17 05:30N 38°16' E 013°27'713.8
2018-Jul-17 05:00N 38°23' E 013°29'714.0
2018-Jul-17 04:30N 38°30' E 013°31'714.2
2018-Jul-17 04:00N 38°37' E 013°33'714.5
2018-Jul-17 03:30N 38°44' E 013°35'714.8
2018-Jul-17 03:00N 38°51' E 013°37'2114.7
2018-Jul-17 01:35N 39°11' E 013°44'314.8
2018-Jul-17 01:22N 39°15' E 013°45'514.8
2018-Jul-17 01:00N 39°20' E 013°46'714.6
2018-Jul-17 00:30N 39°27' E 013°48'1414.2
2018-Jul-16 23:31N 39°41' E 013°52'714.1
2018-Jul-16 23:00N 39°48' E 013°54'814.0
2018-Jul-16 22:27N 39°55' E 013°56'614.0
2018-Jul-16 22:00N 40°01' E 013°59'714.3
2018-Jul-16 21:30N 40°08' E 014°01'714.2
2018-Jul-16 21:01N 40°15' E 014°03'714.2
2018-Jul-16 20:30N 40°22' E 014°05'714.1
2018-Jul-16 20:00N 40°29' E 014°07'714.2
2018-Jul-16 19:30N 40°36' E 014°09'714.2
2018-Jul-16 19:00N 40°42' E 014°13'714.4
2018-Jul-16 18:30N 40°49' E 014°17'2 3.1
2018-Jul-16 18:00N 40°50' E 014°16'0 0.0
2018-Jul-16 17:30N 40°50' E 014°16'0 0.0
2018-Jul-16 17:00N 40°50' E 014°16'0 0.0
2018-Jul-16 16:28N 40°50' E 014°16'0 0.0
2018-Jul-16 15:58N 40°50' E 014°16'0 0.0
2018-Jul-16 15:29N 40°50' E 014°16'0 0.0
2018-Jul-16 15:00N 40°50' E 014°16'0 0.0
2018-Jul-16 14:30N 40°50' E 014°16'0 0.0
2018-Jul-16 14:00N 40°50' E 014°16'0 0.0
2018-Jul-16 13:30N 40°50' E 014°16'0 0.0
2018-Jul-16 13:00N 40°50' E 014°16'0 0.0
2018-Jul-16 12:30N 40°50' E 014°16'0 0.0
2018-Jul-16 12:00N 40°50' E 014°16'0 0.0
2018-Jul-16 11:30N 40°50' E 014°16'0 0.0
2018-Jul-16 11:00N 40°50' E 014°16'1 1.0
2018-Jul-16 10:31N 40°50' E 014°16'611.2
2018-Jul-16 10:01N 40°44' E 014°17'917.3
2018-Jul-16 09:30N 40°40' E 014°07'917.8
2018-Jul-16 09:00N 40°38' E 013°56'1020.6
2018-Jul-16 08:30N 40°39' E 013°43'1020.9
2018-Jul-16 08:00N 40°42' E 013°29'1120.9
2018-Jul-16 07:29N 40°45' E 013°15'1121.0
2018-Jul-16 06:59N 40°47' E 013°02'1020.5
2018-Jul-16 06:31N 40°51' E 012°50'1021.0
2018-Jul-16 06:01N 40°57' E 012°38'1120.9
2018-Jul-16 05:30N 41°03' E 012°26'1021.0
2018-Jul-16 05:00N 41°08' E 012°15'1020.9
2018-Jul-16 04:30N 41°14' E 012°03'1520.9
2018-Jul-16 03:46N 41°22' E 011°46'620.7
2018-Jul-16 03:30N 41°25' E 011°40'1320.2
2018-Jul-16 02:50N 41°34' E 011°26'720.7
2018-Jul-16 02:29N 41°37' E 011°17'1021.0
2018-Jul-16 02:00N 41°43' E 011°06'3919.3
2018-Jul-15 23:58N 42°03' E 010°22'920.1
2018-Jul-15 23:30N 42°09' E 010°12'1020.0
2018-Jul-15 23:00N 42°15' E 010°00'1019.8
2018-Jul-15 22:30N 42°21' E 009°51'1020.6
2018-Jul-15 22:00N 42°31' E 009°47'1020.7
2018-Jul-15 21:30N 42°41' E 009°43'1020.5
2018-Jul-15 21:00N 42°51' E 009°38'1020.4
2018-Jul-15 20:30N 43°01' E 009°35'1020.0
2018-Jul-15 20:00N 43°10' E 009°29'1020.3
2018-Jul-15 19:30N 43°19' E 009°22'1020.0
2018-Jul-15 19:00N 43°27' E 009°15'1020.1
2018-Jul-15 18:30N 43°36' E 009°07'1020.4
2018-Jul-15 18:00N 43°44' E 009°00'1020.1
2018-Jul-15 17:30N 43°53' E 008°53'1019.1
2018-Jul-15 17:00N 44°01' E 008°46'1019.7
2018-Jul-15 16:30N 44°10' E 008°40'1019.3
2018-Jul-15 16:00N 44°18' E 008°33'2 5.0
2018-Jul-15 15:30N 44°19' E 008°29'0 0.0
2018-Jul-15 15:00N 44°19' E 008°29'0 0.0
2018-Jul-15 14:28N 44°19' E 008°29'0 0.0
2018-Jul-15 13:58N 44°19' E 008°29'0 0.0
2018-Jul-15 13:30N 44°19' E 008°29'0 0.0
2018-Jul-15 13:00N 44°19' E 008°29'0 0.0
2018-Jul-15 12:30N 44°19' E 008°29'0 0.0
2018-Jul-15 12:00N 44°19' E 008°29'0 0.0
2018-Jul-15 11:30N 44°19' E 008°29'0 0.0
2018-Jul-15 11:00N 44°19' E 008°29'0 0.0
2018-Jul-15 10:29N 44°19' E 008°29'0 0.0
2018-Jul-15 09:59N 44°19' E 008°29'0 0.0
2018-Jul-15 09:29N 44°19' E 008°29'0 0.0
2018-Jul-15 08:59N 44°19' E 008°29'0 0.0
2018-Jul-15 08:28N 44°19' E 008°29'0 0.0
2018-Jul-15 07:58N 44°19' E 008°29'0 0.0
2018-Jul-15 07:28N 44°19' E 008°29'0 0.0
2018-Jul-15 06:58N 44°19' E 008°29'0 0.0
2018-Jul-15 06:30N 44°19' E 008°29'0 0.3
2018-Jul-15 06:00N 44°19' E 008°29'4 7.4
2018-Jul-15 05:31N 44°15' E 008°32'917.5
2018-Jul-15 05:00N 44°07' E 008°27'1019.1
2018-Jul-15 04:30N 43°59' E 008°20'1019.8
2018-Jul-15 04:01N 43°51' E 008°12'1019.7
2018-Jul-15 03:31N 43°44' E 008°03'1019.9
2018-Jul-15 03:00N 43°38' E 007°52'1019.8
2018-Jul-15 02:30N 43°32' E 007°41'1019.9
2018-Jul-15 02:00N 43°26' E 007°30'1020.1
2018-Jul-15 01:30N 43°20' E 007°19'1020.1
2018-Jul-15 01:01N 43°13' E 007°09'1020.4
2018-Jul-15 00:30N 43°07' E 006°58'1020.5
2018-Jul-15 00:01N 43°02' E 006°46'1020.1
2018-Jul-14 23:30N 42°56' E 006°35'1619.7
2018-Jul-14 22:42N 42°49' E 006°15'419.9
2018-Jul-14 22:30N 42°47' E 006°10'1020.0
2018-Jul-14 22:01N 42°42' E 005°58'1020.4
2018-Jul-14 21:31N 42°38' E 005°46'1120.6
2018-Jul-14 21:00N 42°33' E 005°33'1020.5
2018-Jul-14 20:30N 42°28' E 005°22'1020.6
2018-Jul-14 20:00N 42°23' E 005°09'1020.8
2018-Jul-14 19:30N 42°18' E 004°57'1020.3
2018-Jul-14 19:00N 42°14' E 004°44'1020.3
2018-Jul-14 18:30N 42°09' E 004°33'1020.6
2018-Jul-14 18:00N 42°04' E 004°20'1020.6
2018-Jul-14 17:30N 41°59' E 004°08'1020.4
2018-Jul-14 17:01N 41°54' E 003°56'1320.5
2018-Jul-14 16:23N 41°48' E 003°41'820.4
2018-Jul-14 15:59N 41°44' E 003°31'1020.1
2018-Jul-14 15:30N 41°40' E 003°20'1020.3
2018-Jul-14 15:01N 41°35' E 003°08'1020.2
2018-Jul-14 14:31N 41°31' E 002°56'2120.5
2018-Jul-14 13:30N 41°22' E 002°31'1121.1
2018-Jul-14 13:00N 41°16' E 002°19'714.0
2018-Jul-14 12:30N 41°18' E 002°10'3 6.1
2018-Jul-14 12:00N 41°21' E 002°11'0 0.0
2018-Jul-14 11:30N 41°21' E 002°11'0 0.0
2018-Jul-14 11:00N 41°21' E 002°11'0 0.0
2018-Jul-14 10:30N 41°21' E 002°11'0 0.0
2018-Jul-14 10:00N 41°21' E 002°11'0 0.0
2018-Jul-14 09:30N 41°21' E 002°11'0 0.0
2018-Jul-14 09:00N 41°21' E 002°11'0 0.0
2018-Jul-14 08:30N 41°21' E 002°11'0 0.0
2018-Jul-14 08:00N 41°21' E 002°11'0 0.0
2018-Jul-14 07:30N 41°21' E 002°11'0 0.0
2018-Jul-14 07:00N 41°21' E 002°11'0 0.0
2018-Jul-14 06:30N 41°21' E 002°11'0 0.0
2018-Jul-14 06:00N 41°21' E 002°11'0 0.0
2018-Jul-14 05:30N 41°21' E 002°10'1 2.6
2018-Jul-14 05:00N 41°20' E 002°10'5 9.7
2018-Jul-14 04:30N 41°15' E 002°11'510.5
2018-Jul-14 04:00N 41°10' E 002°11'611.3
2018-Jul-14 03:30N 41°04' E 002°12'611.0
2018-Jul-14 03:00N 40°59' E 002°12'611.2
2018-Jul-14 02:27N 40°53' E 002°12'511.3
2018-Jul-14 02:00N 40°48' E 002°12'611.4
2018-Jul-14 01:30N 40°42' E 002°12'611.3
2018-Jul-14 01:00N 40°36' E 002°13'611.4
2018-Jul-14 00:30N 40°31' E 002°15'510.9
2018-Jul-14 00:00N 40°25' E 002°14'611.2
2018-Jul-13 23:30N 40°20' E 002°13'1011.7
2018-Jul-13 22:38N 40°10' E 002°14'211.8
2018-Jul-13 22:30N 40°08' E 002°14'2311.6
2018-Jul-13 20:30N 39°45' E 002°14'611.6
2018-Jul-13 20:00N 39°39' E 002°14'611.6
2018-Jul-13 19:30N 39°33' E 002°15'611.4
2018-Jul-13 19:00N 39°29' E 002°20'611.5
2018-Jul-13 18:26N 39°26' E 002°27'511.4
2018-Jul-13 18:00N 39°26' E 002°33'612.2
2018-Jul-13 17:30N 39°30' E 002°38'3 5.4
2018-Jul-13 17:00N 39°33' E 002°38'0 0.0
2018-Jul-13 16:30N 39°33' E 002°38'0 0.0
2018-Jul-13 16:00N 39°33' E 002°38'0 0.0
2018-Jul-13 15:30N 39°33' E 002°38'0 0.0
2018-Jul-13 14:59N 39°33' E 002°38'0 0.0
2018-Jul-13 13:59N 39°33' E 002°38'0 0.0
2018-Jul-13 13:26N 39°33' E 002°38'0 0.0
2018-Jul-13 12:59N 39°33' E 002°38'0 0.0
2018-Jul-13 12:29N 39°33' E 002°38'0 0.0
2018-Jul-13 11:59N 39°33' E 002°38'0 0.0
2018-Jul-13 11:29N 39°33' E 002°38'0 0.0
2018-Jul-13 10:53N 39°33' E 002°38'0 0.0
2018-Jul-13 10:29N 39°33' E 002°38'0 0.0
2018-Jul-13 09:59N 39°33' E 002°38'0 0.0
2018-Jul-13 09:29N 39°33' E 002°38'0 0.0
2018-Jul-13 08:59N 39°33' E 002°38'0 0.0
2018-Jul-13 08:29N 39°33' E 002°38'0 0.0
2018-Jul-13 07:59N 39°33' E 002°38'0 0.0
2018-Jul-13 07:30N 39°33' E 002°38'0 0.0
2018-Jul-13 07:00N 39°33' E 002°38'0 0.3
2018-Jul-13 06:30N 39°33' E 002°38'5 9.9
2018-Jul-13 05:59N 39°28' E 002°36'817.6
2018-Jul-13 05:30N 39°21' E 002°31'917.7
2018-Jul-13 05:00N 39°14' E 002°24'917.5
2018-Jul-13 04:30N 39°08' E 002°16'816.7
2018-Jul-13 04:00N 39°04' E 002°06'917.5
2018-Jul-13 03:29N 38°59' E 001°56'817.5
2018-Jul-13 03:00N 38°57' E 001°46'917.4
2018-Jul-13 02:30N 38°55' E 001°35'713.1
2018-Jul-13 02:01N 38°54' E 001°27'0 0.2
2018-Jul-13 00:09N 38°54' E 001°27'0 0.0
2018-Jul-13 00:00N 38°54' E 001°27'0 0.0
2018-Jul-12 20:39N 38°54' E 001°27'0 0.0
2018-Jul-12 20:30N 38°54' E 001°27'0 0.0
2018-Jul-12 19:58N 38°54' E 001°27'0 0.0
2018-Jul-12 17:43N 38°54' E 001°27'0 0.0
2018-Jul-12 17:27N 38°54' E 001°27'0 0.0
2018-Jul-12 16:54N 38°54' E 001°27'0 0.0
2018-Jul-12 16:30N 38°54' E 001°27'0 0.0
2018-Jul-12 15:54N 38°54' E 001°27'0 0.0
2018-Jul-12 15:21N 38°54' E 001°27'0 0.0
2018-Jul-12 14:15N 38°54' E 001°27'0 0.0
2018-Jul-12 13:51N 38°54' E 001°27'0 0.0
2018-Jul-12 13:15N 38°54' E 001°27'0 0.0
2018-Jul-12 12:57N 38°54' E 001°27'0 0.0
2018-Jul-12 12:15N 38°54' E 001°27'0 0.0
2018-Jul-12 11:27N 38°54' E 001°27'0 0.0
2018-Jul-12 10:51N 38°54' E 001°27'0 0.0
2018-Jul-12 10:27N 38°54' E 001°27'0 0.0
2018-Jul-12 09:51N 38°54' E 001°27'0 0.0
2018-Jul-12 09:30N 38°54' E 001°27'0 0.0
2018-Jul-12 08:57N 38°54' E 001°27'0 0.0
2018-Jul-12 08:15N 38°54' E 001°27'0 0.0
2018-Jul-12 08:00N 38°54' E 001°27'0 0.0
2018-Jul-12 07:30N 38°54' E 001°27'0 0.0
2018-Jul-12 06:51N 38°54' E 001°27'0 0.5
2018-Jul-12 06:28N 38°54' E 001°27'4 9.0
2018-Jul-12 05:59N 38°51' E 001°30'816.4
2018-Jul-12 05:30N 38°50' E 001°40'917.0
2018-Jul-12 05:00N 38°49' E 001°51'816.8
2018-Jul-12 04:30N 38°49' E 002°01'611.9
2018-Jul-12 04:00N 38°49' E 002°09'612.1
2018-Jul-12 03:30N 38°48' E 002°17'612.1
2018-Jul-12 02:59N 38°48' E 002°25'  

Dump ship's entire track history